This is the latest recevied weather packets stored in our database for station/object WA1RYQ. If no packets are shown the sender has not sent any weather packets the latest 10 day(s).
| Time | Temp. | Humidity | Pressure | Rain* | Wind** | Luminosity | Snow |
|---|---|---|---|---|---|---|---|
| 1777568105 | 27.78° C | 75% | 1013.2 hPa | 0 mm | - | 956 W/m² | - |
| 1777519241 | 23.89° C | 85% | 1014.5 hPa | 0 mm | - | 0 W/m² | - |
| 1777518029 | 23.89° C | 84% | 1014.5 hPa | 0 mm | - | 0 W/m² | - |
| 1777517458 | 23.89° C | 84% | 1014.5 hPa | 0 mm | - | 0 W/m² | - |
| 1777515367 | 23.89° C | 85% | 1014.1 hPa | 0 mm | - | 0 W/m² | - |
| 1777514442 | 23.89° C | 85% | 1013.9 hPa | 0 mm | - | 0 W/m² | - |
| 1777513860 | 23.89° C | 85% | 1014 hPa | 0 mm | - | 0 W/m² | - |
| 1777513510 | 23.89° C | 85% | 1013.8 hPa | 0 mm | - | 0 W/m² | - |
| 1777510562 | 23.89° C | 85% | 1013.5 hPa | 0 mm | - | 0 W/m² | - |
| 1777509605 | 24.44° C | 85% | 1013.1 hPa | 0 mm | - | 0 W/m² | - |
| 1777509322 | 24.44° C | 85% | 1013.1 hPa | 0 mm | - | 0 W/m² | - |
| 1777504564 | 25.56° C | 82% | 1012.9 hPa | 0 mm | - | 44 W/m² | - |
| 1777502704 | 25.56° C | 80% | 1012.9 hPa | 0 mm | - | 51 W/m² | - |
| 1777501258 | 26.11° C | 80% | 1012.8 hPa | 0 mm | - | 54 W/m² | - |
| 1777500029 | 26.11° C | 80% | 1013 hPa | 0 mm | - | 88 W/m² | - |
| 1777499407 | 26.11° C | 80% | 1013 hPa | 0 mm | - | 97 W/m² | - |
| 1777499122 | 26.11° C | 79% | 1012.9 hPa | 0 mm | - | 88 W/m² | - |
| 1777497959 | 26.67° C | 77% | 1013.1 hPa | 0 mm | - | 105 W/m² | - |
| 1777497619 | 26.67° C | 77% | 1013.1 hPa | 0 mm | - | 415 W/m² | - |
| 1777497340 | 26.67° C | 77% | 1013.1 hPa | 0 mm | - | 517 W/m² | - |
| 1777497056 | 26.67° C | 77% | 1013.1 hPa | 0 mm | - | 527 W/m² | - |
| 1777496712 | 26.67° C | 76% | 1013.3 hPa | 0 mm | - | 541 W/m² | - |
| 1777496148 | 27.22° C | 76% | 1013.4 hPa | 0 mm | - | 578 W/m² | - |
| 1777495518 | 27.22° C | 76% | 1013.6 hPa | 0 mm | - | 613 W/m² | - |
| 1777494050 | 27.22° C | 73% | 1014.1 hPa | 0 mm | - | 656 W/m² | - |
* Rain latest hour (hover to see other rain measurements)
** Current wind speed in m/s (hover to see current wind gust speed)